sensor_id;sensor_type;location;lat;lon;timestamp;pressure;altitude;pressure_sealevel;temperature;humidity
36010;BME280;22076;52.182;5.404;2024-03-29T00:01:55;99854.03;;;8.58;100.00
36010;BME280;22076;52.182;5.404;2024-03-29T00:04:23;99860.19;;;8.57;100.00
36010;BME280;22076;52.182;5.404;2024-03-29T00:06:49;99859.31;;;8.57;100.00
36010;BME280;22076;52.182;5.404;2024-03-29T00:09:14;99859.44;;;8.55;100.00
36010;BME280;22076;52.182;5.404;2024-03-29T00:11:40;99849.94;;;8.54;100.00
36010;BME280;22076;52.182;5.404;2024-03-29T00:14:05;99845.75;;;8.52;100.00
36010;BME280;22076;52.182;5.404;2024-03-29T00:16:31;99847.53;;;8.51;100.00
36010;BME280;22076;52.182;5.404;2024-03-29T00:18:57;99852.97;;;8.48;100.00
36010;BME280;22076;52.182;5.404;2024-03-29T00:21:24;99853.97;;;8.46;100.00
36010;BME280;22076;52.182;5.404;2024-03-29T00:23:49;99855.69;;;8.45;100.00
36010;BME280;22076;52.182;5.404;2024-03-29T00:26:15;99861.88;;;8.44;100.00
36010;BME280;22076;52.182;5.404;2024-03-29T00:28:40;99860.34;;;8.40;100.00
36010;BME280;22076;52.182;5.404;2024-03-29T00:31:13;99852.84;;;8.35;100.00
36010;BME280;22076;52.182;5.404;2024-03-29T00:33:39;99864.63;;;8.41;100.00
36010;BME280;22076;52.182;5.404;2024-03-29T00:36:04;99864.00;;;8.37;100.00
36010;BME280;22076;52.182;5.404;2024-03-29T00:38:31;99871.91;;;8.36;100.00
36010;BME280;22076;52.182;5.404;2024-03-29T00:40:57;99880.63;;;8.35;100.00
36010;BME280;22076;52.182;5.404;2024-03-29T00:43:22;99886.78;;;8.48;100.00
36010;BME280;22076;52.182;5.404;2024-03-29T00:45:53;99879.53;;;8.39;100.00
36010;BME280;22076;52.182;5.404;2024-03-29T00:48:19;99879.59;;;8.37;100.00
36010;BME280;22076;52.182;5.404;2024-03-29T00:50:44;99888.44;;;8.35;100.00
36010;BME280;22076;52.182;5.404;2024-03-29T00:53:10;99892.06;;;8.32;100.00
36010;BME280;22076;52.182;5.404;2024-03-29T00:55:37;99888.63;;;8.32;100.00
36010;BME280;22076;52.182;5.404;2024-03-29T00:58:03;99894.97;;;8.27;100.00
36010;BME280;22076;52.182;5.404;2024-03-29T01:00:29;99888.19;;;8.25;100.00
36010;BME280;22076;52.182;5.404;2024-03-29T01:02:54;99897.69;;;8.26;100.00
36010;BME280;22076;52.182;5.404;2024-03-29T01:05:20;99900.34;;;8.24;100.00
36010;BME280;22076;52.182;5.404;2024-03-29T01:07:45;99905.75;;;8.21;100.00
36010;BME280;22076;52.182;5.404;2024-03-29T01:10:11;99899.53;;;8.24;100.00
36010;BME280;22076;52.182;5.404;2024-03-29T01:12:38;99897.13;;;8.21;100.00
36010;BME280;22076;52.182;5.404;2024-03-29T01:15:04;99904.06;;;8.20;100.00
36010;BME280;22076;52.182;5.404;2024-03-29T01:17:30;99903.25;;;8.20;100.00
36010;BME280;22076;52.182;5.404;2024-03-29T01:19:56;99898.03;;;8.20;100.00
36010;BME280;22076;52.182;5.404;2024-03-29T01:22:22;99898.88;;;8.20;100.00
36010;BME280;22076;52.182;5.404;2024-03-29T01:24:48;99890.97;;;8.22;100.00
36010;BME280;22076;52.182;5.404;2024-03-29T01:27:14;99893.75;;;8.19;100.00
36010;BME280;22076;52.182;5.404;2024-03-29T01:29:44;99898.97;;;8.19;100.00
36010;BME280;22076;52.182;5.404;2024-03-29T01:32:09;99886.97;;;8.16;100.00
36010;BME280;22076;52.182;5.404;2024-03-29T01:34:35;99885.97;;;8.19;100.00
36010;BME280;22076;52.182;5.404;2024-03-29T01:37:01;99898.16;;;8.18;100.00
36010;BME280;22076;52.182;5.404;2024-03-29T01:39:26;99891.38;;;8.16;100.00
36010;BME280;22076;52.182;5.404;2024-03-29T01:41:52;99892.28;;;8.15;100.00
36010;BME280;22076;52.182;5.404;2024-03-29T01:44:17;99887.09;;;8.15;100.00
36010;BME280;22076;52.182;5.404;2024-03-29T01:46:46;99877.59;;;8.14;100.00
36010;BME280;22076;52.182;5.404;2024-03-29T01:49:13;99885.50;;;8.12;100.00
36010;BME280;22076;52.182;5.404;2024-03-29T01:51:41;99876.88;;;8.12;100.00
36010;BME280;22076;52.182;5.404;2024-03-29T01:54:08;99871.75;;;8.10;100.00
36010;BME280;22076;52.182;5.404;2024-03-29T01:56:35;99872.69;;;8.09;100.00
36010;BME280;22076;52.182;5.404;2024-03-29T01:59:09;99867.28;;;8.12;100.00
36010;BME280;22076;52.182;5.404;2024-03-29T02:01:38;99854.56;;;8.07;100.00
36010;BME280;22076;52.182;5.404;2024-03-29T02:04:07;99859.84;;;8.06;100.00
36010;BME280;22076;52.182;5.404;2024-03-29T02:06:44;99860.06;;;8.03;100.00
36010;BME280;22076;52.182;5.404;2024-03-29T02:09:11;99861.09;;;8.00;100.00
36010;BME280;22076;52.182;5.404;2024-03-29T02:11:38;99862.09;;;7.98;100.00
36010;BME280;22076;52.182;5.404;2024-03-29T02:14:06;99850.84;;;7.97;100.00
36010;BME280;22076;52.182;5.404;2024-03-29T02:16:32;99861.34;;;7.96;100.00
36010;BME280;22076;52.182;5.404;2024-03-29T02:18:59;99871.66;;;7.97;100.00
36010;BME280;22076;52.182;5.404;2024-03-29T02:21:27;99868.44;;;7.93;100.00
36010;BME280;22076;52.182;5.404;2024-03-29T02:24:00;99881.53;;;7.92;100.00
36010;BME280;22076;52.182;5.404;2024-03-29T02:26:29;99883.19;;;7.93;100.00
36010;BME280;22076;52.182;5.404;2024-03-29T02:28:58;99884.41;;;7.87;100.00
36010;BME280;22076;52.182;5.404;2024-03-29T02:31:24;99886.06;;;7.88;100.00
36010;BME280;22076;52.182;5.404;2024-03-29T02:33:51;99890.53;;;7.86;100.00
36010;BME280;22076;52.182;5.404;2024-03-29T02:36:17;99897.31;;;7.89;100.00
36010;BME280;22076;52.182;5.404;2024-03-29T02:38:44;99893.03;;;7.88;100.00
36010;BME280;22076;52.182;5.404;2024-03-29T02:41:12;99893.03;;;7.88;100.00
36010;BME280;22076;52.182;5.404;2024-03-29T02:43:38;99905.41;;;7.84;100.00
36010;BME280;22076;52.182;5.404;2024-03-29T02:46:13;99903.72;;;7.83;100.00
36010;BME280;22076;52.182;5.404;2024-03-29T02:48:39;99900.47;;;7.80;100.00
36010;BME280;22076;52.182;5.404;2024-03-29T02:51:05;99901.28;;;7.80;100.00
36010;BME280;22076;52.182;5.404;2024-03-29T02:53:31;99898.69;;;7.80;100.00
36010;BME280;22076;52.182;5.404;2024-03-29T02:55:57;99895.34;;;7.78;100.00
36010;BME280;22076;52.182;5.404;2024-03-29T02:58:25;99892.75;;;7.78;100.00
36010;BME280;22076;52.182;5.404;2024-03-29T03:00:50;99894.44;;;7.79;100.00
36010;BME280;22076;52.182;5.404;2024-03-29T03:03:17;99894.50;;;7.77;100.00
36010;BME280;22076;52.182;5.404;2024-03-29T03:05:43;99899.69;;;7.77;100.00
36010;BME280;22076;52.182;5.404;2024-03-29T03:08:11;99891.91;;;7.77;100.00
36010;BME280;22076;52.182;5.404;2024-03-29T03:11:20;99898.78;;;7.78;100.00
36010;BME280;22076;52.182;5.404;2024-03-29T03:13:48;99903.97;;;7.78;100.00
36010;BME280;22076;52.182;5.404;2024-03-29T03:16:14;99903.06;;;7.80;100.00
36010;BME280;22076;52.182;5.404;2024-03-29T03:18:41;99901.56;;;7.75;100.00
36010;BME280;22076;52.182;5.404;2024-03-29T03:21:07;99900.72;;;7.75;100.00
36010;BME280;22076;52.182;5.404;2024-03-29T03:23:33;99910.28;;;7.74;100.00
36010;BME280;22076;52.182;5.404;2024-03-29T03:26:00;99911.06;;;7.76;100.00
36010;BME280;22076;52.182;5.404;2024-03-29T03:28:26;99911.13;;;7.75;100.00
36010;BME280;22076;52.182;5.404;2024-03-29T03:30:56;99921.34;;;7.78;100.00
36010;BME280;22076;52.182;5.404;2024-03-29T03:33:22;99919.88;;;7.74;100.00
36010;BME280;22076;52.182;5.404;2024-03-29T03:35:49;99922.19;;;7.78;100.00
36010;BME280;22076;52.182;5.404;2024-03-29T03:38:22;99912.69;;;7.77;100.00
36010;BME280;22076;52.182;5.404;2024-03-29T03:40:49;99925.63;;;7.79;100.00
36010;BME280;22076;52.182;5.404;2024-03-29T03:43:15;99922.19;;;7.78;100.00
36010;BME280;22076;52.182;5.404;2024-03-29T03:45:49;99926.38;;;7.81;100.00
36010;BME280;22076;52.182;5.404;2024-03-29T03:48:16;99924.69;;;7.80;100.00
36010;BME280;22076;52.182;5.404;2024-03-29T03:50:42;99927.28;;;7.80;100.00
36010;BME280;22076;52.182;5.404;2024-03-29T03:53:22;99924.63;;;7.82;100.00
36010;BME280;22076;52.182;5.404;2024-03-29T03:55:49;99921.25;;;7.80;100.00
36010;BME280;22076;52.182;5.404;2024-03-29T03:58:14;99928.13;;;7.81;100.00
36010;BME280;22076;52.182;5.404;2024-03-29T04:00:48;99934.25;;;7.80;100.00
36010;BME280;22076;52.182;5.404;2024-03-29T04:03:13;99942.88;;;7.80;100.00
36010;BME280;22076;52.182;5.404;2024-03-29T04:05:41;99934.06;;;7.83;100.00
36010;BME280;22076;52.182;5.404;2024-03-29T04:08:13;99935.84;;;7.82;100.00
36010;BME280;22076;52.182;5.404;2024-03-29T04:10:41;99944.47;;;7.83;100.00
36010;BME280;22076;52.182;5.404;2024-03-29T04:13:08;99944.31;;;7.86;100.00
36010;BME280;22076;52.182;5.404;2024-03-29T04:15:42;99938.25;;;7.85;100.00
36010;BME280;22076;52.182;5.404;2024-03-29T04:18:08;99949.66;;;7.83;100.00
36010;BME280;22076;52.182;5.404;2024-03-29T04:20:34;99943.38;;;7.87;100.00
36010;BME280;22076;52.182;5.404;2024-03-29T04:23:03;99934.63;;;7.88;100.00
36010;BME280;22076;52.182;5.404;2024-03-29T04:25:30;99936.22;;;7.90;100.00
36010;BME280;22076;52.182;5.404;2024-03-29T04:28:07;99936.78;;;7.96;100.00
36010;BME280;22076;52.182;5.404;2024-03-29T04:30:34;99932.59;;;7.93;100.00
36010;BME280;22076;52.182;5.404;2024-03-29T04:33:01;99936.78;;;7.96;100.00
36010;BME280;22076;52.182;5.404;2024-03-29T04:35:28;99941.34;;;7.92;100.00
36010;BME280;22076;52.182;5.404;2024-03-29T04:37:54;99938.75;;;7.92;100.00
36010;BME280;22076;52.182;5.404;2024-03-29T04:40:29;99947.09;;;7.97;100.00
36010;BME280;22076;52.182;5.404;2024-03-29T04:42:55;99940.97;;;7.98;100.00
36010;BME280;22076;52.182;5.404;2024-03-29T04:45:22;99956.47;;;8.00;100.00
36010;BME280;22076;52.182;5.404;2024-03-29T04:47:48;99951.25;;;8.00;100.00
36010;BME280;22076;52.182;5.404;2024-03-29T04:50:15;99940.78;;;8.01;100.00
36010;BME280;22076;52.182;5.404;2024-03-29T04:52:43;99944.31;;;8.00;100.00
36010;BME280;22076;52.182;5.404;2024-03-29T04:55:10;99955.28;;;8.05;100.00
36010;BME280;22076;52.182;5.404;2024-03-29T04:57:38;99943.28;;;8.03;100.00
36010;BME280;22076;52.182;5.404;2024-03-29T05:00:05;99950.19;;;8.04;100.00
36010;BME280;22076;52.182;5.404;2024-03-29T05:02:32;99960.28;;;8.08;100.00
36010;BME280;22076;52.182;5.404;2024-03-29T05:04:59;99972.56;;;8.06;100.00
36010;BME280;22076;52.182;5.404;2024-03-29T05:07:25;99959.56;;;8.06;100.00
36010;BME280;22076;52.182;5.404;2024-03-29T05:09:52;99964.94;;;8.03;100.00
36010;BME280;22076;52.182;5.404;2024-03-29T05:12:18;99976.19;;;8.04;100.00
36010;BME280;22076;52.182;5.404;2024-03-29T05:14:46;99990.22;;;8.01;100.00
36010;BME280;22076;52.182;5.404;2024-03-29T05:17:14;99999.88;;;7.99;100.00
36010;BME280;22076;52.182;5.404;2024-03-29T05:19:42;100001.44;;;8.02;100.00
36010;BME280;22076;52.182;5.404;2024-03-29T05:22:18;100005.81;;;8.01;100.00
36010;BME280;22076;52.182;5.404;2024-03-29T05:24:44;100015.72;;;7.94;100.00
36010;BME280;22076;52.182;5.404;2024-03-29T05:27:11;100032.19;;;7.95;100.00
36010;BME280;22076;52.182;5.404;2024-03-29T05:29:38;100049.53;;;7.94;100.00
36010;BME280;22076;52.182;5.404;2024-03-29T05:32:06;100066.19;;;7.92;100.00
36010;BME280;22076;52.182;5.404;2024-03-29T05:34:33;100097.47;;;7.90;100.00
36010;BME280;22076;52.182;5.404;2024-03-29T05:37:15;100102.94;;;7.86;100.00
36010;BME280;22076;52.182;5.404;2024-03-29T05:39:43;100121.16;;;7.86;100.00
36010;BME280;22076;52.182;5.404;2024-03-29T05:42:10;100143.88;;;7.82;100.00
36010;BME280;22076;52.182;5.404;2024-03-29T05:44:44;100165.69;;;7.80;100.00
36010;BME280;22076;52.182;5.404;2024-03-29T05:47:12;100176.91;;;7.80;100.00
36010;BME280;22076;52.182;5.404;2024-03-29T05:49:38;100178.09;;;7.74;100.00
36010;BME280;22076;52.182;5.404;2024-03-29T05:52:14;100178.09;;;7.74;100.00
36010;BME280;22076;52.182;5.404;2024-03-29T05:54:41;100183.50;;;7.71;100.00
36010;BME280;22076;52.182;5.404;2024-03-29T05:57:07;100203.44;;;7.71;100.00
36010;BME280;22076;52.182;5.404;2024-03-29T05:59:34;100207.88;;;7.69;100.00
36010;BME280;22076;52.182;5.404;2024-03-29T06:02:01;100212.22;;;7.68;100.00
36010;BME280;22076;52.182;5.404;2024-03-29T06:04:29;100200.25;;;7.66;100.00
36010;BME280;22076;52.182;5.404;2024-03-29T06:06:58;100180.63;;;7.60;100.00
36010;BME280;22076;52.182;5.404;2024-03-29T06:09:25;100191.69;;;7.64;100.00
36010;BME280;22076;52.182;5.404;2024-03-29T06:11:54;100204.44;;;7.68;100.00
36010;BME280;22076;52.182;5.404;2024-03-29T06:14:21;100197.63;;;7.66;100.00
36010;BME280;22076;52.182;5.404;2024-03-29T06:17:05;100199.41;;;7.65;100.00
36010;BME280;22076;52.182;5.404;2024-03-29T06:19:51;100191.69;;;7.64;100.00
36010;BME280;22076;52.182;5.404;2024-03-29T06:22:44;100199.31;;;7.67;100.00
36010;BME280;22076;52.182;5.404;2024-03-29T06:25:11;100199.22;;;7.68;100.00
36010;BME280;22076;52.182;5.404;2024-03-29T06:27:47;100187.09;;;7.69;100.00
36010;BME280;22076;52.182;5.404;2024-03-29T06:30:18;100178.44;;;7.68;100.00
36010;BME280;22076;52.182;5.404;2024-03-29T06:32:45;100167.28;;;7.66;100.00
36010;BME280;22076;52.182;5.404;2024-03-29T06:35:14;100172.41;;;7.68;100.00
36010;BME280;22076;52.182;5.404;2024-03-29T06:37:48;100168.72;;;7.72;100.00
36010;BME280;22076;52.182;5.404;2024-03-29T06:40:25;100180.88;;;7.71;100.00
36010;BME280;22076;52.182;5.404;2024-03-29T06:42:53;100166.34;;;7.67;100.00
36010;BME280;22076;52.182;5.404;2024-03-29T06:45:39;100171.50;;;7.69;100.00
36010;BME280;22076;52.182;5.404;2024-03-29T06:48:10;100167.13;;;7.69;100.00
36010;BME280;22076;52.182;5.404;2024-03-29T06:50:39;100172.22;;;7.71;100.00
36010;BME280;22076;52.182;5.404;2024-03-29T06:53:07;100162.69;;;7.71;100.00
36010;BME280;22076;52.182;5.404;2024-03-29T06:55:50;100161.75;;;7.72;100.00
36010;BME280;22076;52.182;5.404;2024-03-29T06:58:18;100155.53;;;7.75;100.00
36010;BME280;22076;52.182;5.404;2024-03-29T07:00:46;100159.00;;;7.75;100.00
36010;BME280;22076;52.182;5.404;2024-03-29T07:03:16;100137.31;;;7.75;100.00
36010;BME280;22076;52.182;5.404;2024-03-29T07:05:45;100149.41;;;7.76;100.00
36010;BME280;22076;52.182;5.404;2024-03-29T07:08:12;100150.41;;;7.73;100.00
36010;BME280;22076;52.182;5.404;2024-03-29T07:10:38;100146.06;;;7.74;100.00
36010;BME280;22076;52.182;5.404;2024-03-29T07:13:24;100144.13;;;7.77;100.00
36010;BME280;22076;52.182;5.404;2024-03-29T07:15:54;100161.41;;;7.78;100.00
36010;BME280;22076;52.182;5.404;2024-03-29T07:18:26;100155.47;;;7.76;100.00
36010;BME280;22076;52.182;5.404;2024-03-29T07:21:11;100159.00;;;7.75;100.00
36010;BME280;22076;52.182;5.404;2024-03-29T07:23:44;100161.69;;;7.74;100.00
36010;BME280;22076;52.182;5.404;2024-03-29T07:26:11;100160.72;;;7.75;100.00
36010;BME280;22076;52.182;5.404;2024-03-29T07:28:38;100178.00;;;7.76;100.00
36010;BME280;22076;52.182;5.404;2024-03-29T07:31:05;100175.00;;;7.84;100.00
36010;BME280;22076;52.182;5.404;2024-03-29T07:33:32;100181.28;;;7.80;100.00
36010;BME280;22076;52.182;5.404;2024-03-29T07:35:59;100184.72;;;7.80;100.00
36010;BME280;22076;52.182;5.404;2024-03-29T07:38:29;100200.84;;;7.87;100.00
36010;BME280;22076;52.182;5.404;2024-03-29T07:40:57;100200.00;;;7.86;100.00
36010;BME280;22076;52.182;5.404;2024-03-29T07:43:23;100193.97;;;7.86;100.00
36010;BME280;22076;52.182;5.404;2024-03-29T07:46:03;100199.16;;;7.86;100.00
36010;BME280;22076;52.182;5.404;2024-03-29T07:48:32;100195.56;;;7.88;100.00
36010;BME280;22076;52.182;5.404;2024-03-29T07:51:11;100193.97;;;7.86;100.00
36010;BME280;22076;52.182;5.404;2024-03-29T07:53:43;100196.06;;;7.79;100.00
36010;BME280;22076;52.182;5.404;2024-03-29T07:56:10;100194.53;;;7.75;100.00
36010;BME280;22076;52.182;5.404;2024-03-29T07:58:37;100196.06;;;7.79;100.00
36010;BME280;22076;52.182;5.404;2024-03-29T08:01:03;100206.88;;;7.87;100.00
36010;BME280;22076;52.182;5.404;2024-03-29T08:03:31;100205.88;;;7.90;100.00
36010;BME280;22076;52.182;5.404;2024-03-29T08:06:04;100202.75;;;7.99;100.00
36010;BME280;22076;52.182;5.404;2024-03-29T08:08:31;100203.91;;;8.09;100.00
36010;BME280;22076;52.182;5.404;2024-03-29T08:11:00;100183.88;;;8.12;100.00
36010;BME280;22076;52.182;5.404;2024-03-29T08:13:32;100168.06;;;8.15;100.00
36010;BME280;22076;52.182;5.404;2024-03-29T08:16:01;100158.34;;;8.18;100.00
36010;BME280;22076;52.182;5.404;2024-03-29T08:18:31;100164.03;;;8.25;100.00
36010;BME280;22076;52.182;5.404;2024-03-29T08:21:05;100173.41;;;8.27;100.00
36010;BME280;22076;52.182;5.404;2024-03-29T08:23:39;100176.94;;;8.26;100.00
36010;BME280;22076;52.182;5.404;2024-03-29T08:26:17;100180.75;;;8.21;100.00
36010;BME280;22076;52.182;5.404;2024-03-29T08:28:44;100175.16;;;8.27;100.00
36010;BME280;22076;52.182;5.404;2024-03-29T08:31:25;100160.63;;;8.39;100.00
36010;BME280;22076;52.182;5.404;2024-03-29T08:33:52;100150.13;;;8.40;100.00
36010;BME280;22076;52.182;5.404;2024-03-29T08:36:28;100132.31;;;8.49;100.00
36010;BME280;22076;52.182;5.404;2024-03-29T08:38:57;100143.03;;;8.58;100.00
36010;BME280;22076;52.182;5.404;2024-03-29T08:41:26;100157.63;;;8.47;100.00
36010;BME280;22076;52.182;5.404;2024-03-29T08:43:53;100168.94;;;8.46;100.00
36010;BME280;22076;52.182;5.404;2024-03-29T08:46:33;100174.16;;;8.46;100.00
36010;BME280;22076;52.182;5.404;2024-03-29T08:49:02;100165.25;;;8.50;100.00
36010;BME280;22076;52.182;5.404;2024-03-29T08:51:30;100174.44;;;8.55;100.00
36010;BME280;22076;52.182;5.404;2024-03-29T08:54:02;100164.78;;;8.57;100.00
36010;BME280;22076;52.182;5.404;2024-03-29T08:56:34;100163.09;;;8.56;100.00
36010;BME280;22076;52.182;5.404;2024-03-29T08:59:02;100164.59;;;8.60;100.00
36010;BME280;22076;52.182;5.404;2024-03-29T09:01:32;100160.97;;;8.63;100.00
36010;BME280;22076;52.182;5.404;2024-03-29T09:03:59;100167.69;;;8.67;100.00
36010;BME280;22076;52.182;5.404;2024-03-29T09:06:27;100174.78;;;8.80;100.00
36010;BME280;22076;52.182;5.404;2024-03-29T09:08:53;100169.56;;;8.94;100.00
36010;BME280;22076;52.182;5.404;2024-03-29T09:11:21;100180.09;;;9.07;100.00
36010;BME280;22076;52.182;5.404;2024-03-29T09:13:49;100174.31;;;9.16;100.00
36010;BME280;22076;52.182;5.404;2024-03-29T09:16:22;100168.09;;;9.19;100.00
36010;BME280;22076;52.182;5.404;2024-03-29T09:18:56;100170.44;;;9.23;100.00
36010;BME280;22076;52.182;5.404;2024-03-29T09:21:31;100166.03;;;9.24;100.00
36010;BME280;22076;52.182;5.404;2024-03-29T09:23:57;100169.66;;;9.21;100.00
36010;BME280;22076;52.182;5.404;2024-03-29T09:26:25;100163.81;;;9.18;100.00
36010;BME280;22076;52.182;5.404;2024-03-29T09:29:04;100156.84;;;9.18;100.00
36010;BME280;22076;52.182;5.404;2024-03-29T09:31:30;100175.09;;;9.18;100.00
36010;BME280;22076;52.182;5.404;2024-03-29T09:33:57;100173.66;;;9.13;100.00
36010;BME280;22076;52.182;5.404;2024-03-29T09:36:24;100184.84;;;9.15;100.00
36010;BME280;22076;52.182;5.404;2024-03-29T09:38:50;100190.63;;;9.20;100.00
36010;BME280;22076;52.182;5.404;2024-03-29T09:41:18;100192.09;;;9.24;100.00
36010;BME280;22076;52.182;5.404;2024-03-29T09:43:47;100193.03;;;9.23;100.00
36010;BME280;22076;52.182;5.404;2024-03-29T09:46:21;100194.72;;;9.24;100.00
36010;BME280;22076;52.182;5.404;2024-03-29T09:48:51;100186.06;;;9.23;100.00
36010;BME280;22076;52.182;5.404;2024-03-29T09:51:19;100179.63;;;9.29;100.00
36010;BME280;22076;52.182;5.404;2024-03-29T09:53:48;100180.38;;;9.31;100.00
36010;BME280;22076;52.182;5.404;2024-03-29T09:56:16;100178.50;;;9.33;100.00
36010;BME280;22076;52.182;5.404;2024-03-29T09:58:43;100181.88;;;9.35;100.00
36010;BME280;22076;52.182;5.404;2024-03-29T10:01:18;100186.78;;;9.40;100.00
36010;BME280;22076;52.182;5.404;2024-03-29T10:03:53;100198.06;;;9.40;100.00
36010;BME280;22076;52.182;5.404;2024-03-29T10:06:28;100190.97;;;9.42;100.00
36010;BME280;22076;52.182;5.404;2024-03-29T10:08:56;100187.63;;;9.40;100.00
36010;BME280;22076;52.182;5.404;2024-03-29T10:11:30;100186.03;;;9.52;100.00
36010;BME280;22076;52.182;5.404;2024-03-29T10:13:59;100177.44;;;9.50;100.00
36010;BME280;22076;52.182;5.404;2024-03-29T10:16:25;100178.75;;;9.57;100.00
36010;BME280;22076;52.182;5.404;2024-03-29T10:18:54;100174.06;;;9.77;100.00
36010;BME280;22076;52.182;5.404;2024-03-29T10:21:29;100180.25;;;9.89;100.00
36010;BME280;22076;52.182;5.404;2024-03-29T10:24:11;100190.41;;;9.94;100.00
36010;BME280;22076;52.182;5.404;2024-03-29T10:26:41;100188.91;;;9.89;100.00
36010;BME280;22076;52.182;5.404;2024-03-29T10:29:13;100194.81;;;10.06;100.00
36010;BME280;22076;52.182;5.404;2024-03-29T10:31:47;100189.72;;;10.04;100.00
36010;BME280;22076;52.182;5.404;2024-03-29T10:34:17;100198.38;;;10.05;100.00
36010;BME280;22076;52.182;5.404;2024-03-29T10:36:46;100200.19;;;10.17;100.00
36010;BME280;22076;52.182;5.404;2024-03-29T10:39:17;100187.97;;;10.18;100.00
36010;BME280;22076;52.182;5.404;2024-03-29T10:41:47;100185.28;;;10.32;100.00
36010;BME280;22076;52.182;5.404;2024-03-29T10:44:14;100198.63;;;10.42;100.00
36010;BME280;22076;52.182;5.404;2024-03-29T10:46:41;100190.38;;;10.35;100.00
36010;BME280;22076;52.182;5.404;2024-03-29T10:49:08;100189.59;;;10.33;100.00
36010;BME280;22076;52.182;5.404;2024-03-29T10:51:41;100182.44;;;10.37;100.00
36010;BME280;22076;52.182;5.404;2024-03-29T10:54:09;100186.81;;;10.49;100.00
36010;BME280;22076;52.182;5.404;2024-03-29T10:56:37;100186.56;;;10.67;100.00
36010;BME280;22076;52.182;5.404;2024-03-29T10:59:15;100183.19;;;10.65;100.00
36010;BME280;22076;52.182;5.404;2024-03-29T11:01:52;100185.50;;;10.69;100.00
36010;BME280;22076;52.182;5.404;2024-03-29T11:04:29;100195.84;;;10.84;100.00
36010;BME280;22076;52.182;5.404;2024-03-29T11:07:05;100187.81;;;10.87;100.00
36010;BME280;22076;52.182;5.404;2024-03-29T11:09:33;100194.41;;;10.80;100.00
36010;BME280;22076;52.182;5.404;2024-03-29T11:12:09;100200.03;;;10.86;100.00
36010;BME280;22076;52.182;5.404;2024-03-29T11:14:42;100224.38;;;10.87;100.00
36010;BME280;22076;52.182;5.404;2024-03-29T11:17:13;100224.28;;;10.76;100.00
36010;BME280;22076;52.182;5.404;2024-03-29T11:19:41;100223.84;;;10.82;100.00
36010;BME280;22076;52.182;5.404;2024-03-29T11:22:11;100208.41;;;10.79;100.00
36010;BME280;22076;52.182;5.404;2024-03-29T11:24:38;100188.84;;;10.71;100.00
36010;BME280;22076;52.182;5.404;2024-03-29T11:27:08;100186.13;;;10.86;100.00
36010;BME280;22076;52.182;5.404;2024-03-29T11:29:36;100185.72;;;10.92;100.00
36010;BME280;22076;52.182;5.404;2024-03-29T11:32:05;100193.78;;;10.89;100.00
36010;BME280;22076;52.182;5.404;2024-03-29T11:34:32;100184.59;;;10.83;100.00
36010;BME280;22076;52.182;5.404;2024-03-29T11:37:06;100179.97;;;11.00;100.00
36010;BME280;22076;52.182;5.404;2024-03-29T11:39:34;100189.59;;;11.12;100.00
36010;BME280;22076;52.182;5.404;2024-03-29T11:42:01;100191.69;;;11.20;100.00
36010;BME280;22076;52.182;5.404;2024-03-29T11:44:28;100186.28;;;11.47;100.00
36010;BME280;22076;52.182;5.404;2024-03-29T11:46:59;100186.66;;;11.67;100.00
36010;BME280;22076;52.182;5.404;2024-03-29T11:49:31;100196.63;;;11.86;100.00
36010;BME280;22076;52.182;5.404;2024-03-29T11:52:05;100177.16;;;11.90;100.00
36010;BME280;22076;52.182;5.404;2024-03-29T11:54:44;100171.94;;;11.90;100.00
36010;BME280;22076;52.182;5.404;2024-03-29T11:57:12;100164.22;;;11.76;100.00
36010;BME280;22076;52.182;5.404;2024-03-29T11:59:40;100144.19;;;11.63;100.00
36010;BME280;22076;52.182;5.404;2024-03-29T12:02:10;100157.25;;;11.63;100.00
36010;BME280;22076;52.182;5.404;2024-03-29T12:04:40;100174.03;;;11.85;100.00
36010;BME280;22076;52.182;5.404;2024-03-29T12:07:07;100177.91;;;11.79;100.00
36010;BME280;22076;52.182;5.404;2024-03-29T12:09:33;100178.16;;;11.76;100.00
36010;BME280;22076;52.182;5.404;2024-03-29T12:12:04;100173.22;;;11.71;100.00
36010;BME280;22076;52.182;5.404;2024-03-29T12:14:33;100180.88;;;11.74;100.00
36010;BME280;22076;52.182;5.404;2024-03-29T12:17:01;100180.16;;;11.72;100.00
36010;BME280;22076;52.182;5.404;2024-03-29T12:19:28;100193.56;;;11.68;100.00
36010;BME280;22076;52.182;5.404;2024-03-29T12:21:56;100193.38;;;11.58;100.00
36010;BME280;22076;52.182;5.404;2024-03-29T12:24:23;100187.91;;;11.61;100.00
36010;BME280;22076;52.182;5.404;2024-03-29T12:26:49;100191.28;;;11.63;100.00
36010;BME280;22076;52.182;5.404;2024-03-29T12:29:17;100186.31;;;11.71;100.00
36010;BME280;22076;52.182;5.404;2024-03-29T12:31:44;100200.44;;;11.69;100.00
36010;BME280;22076;52.182;5.404;2024-03-29T12:34:21;100195.84;;;11.72;100.00
36010;BME280;22076;52.182;5.404;2024-03-29T12:36:47;100192.59;;;11.69;100.00
36010;BME280;22076;52.182;5.404;2024-03-29T12:39:14;100186.31;;;11.71;100.00
36010;BME280;22076;52.182;5.404;2024-03-29T12:41:46;100193.84;;;11.76;100.00
36010;BME280;22076;52.182;5.404;2024-03-29T12:44:23;100198.53;;;11.84;100.00
36010;BME280;22076;52.182;5.404;2024-03-29T12:47:02;100205.59;;;11.95;100.00
36010;BME280;22076;52.182;5.404;2024-03-29T12:49:30;100193.91;;;12.00;100.00
36010;BME280;22076;52.182;5.404;2024-03-29T12:51:56;100182.25;;;12.04;100.00
36010;BME280;22076;52.182;5.404;2024-03-29T12:54:23;100175.28;;;12.16;100.00
36010;BME280;22076;52.182;5.404;2024-03-29T12:56:50;100186.59;;;12.17;100.00
36010;BME280;22076;52.182;5.404;2024-03-29T12:59:16;100188.50;;;12.15;100.00
36010;BME280;22076;52.182;5.404;2024-03-29T13:01:44;100175.59;;;12.12;100.00
36010;BME280;22076;52.182;5.404;2024-03-29T13:04:11;100165.06;;;12.25;100.00